PORT of THAMESPORT

Country: United Kingdom Country: United Kingdom [GB]
Latitude / Longitude: 51.434045° / 0.6936519° Show on Map
Local Time:  [UTC +1]
UN/LOCODE: GBTHP

Vessels in Port


No Records Found

Recent Arrivals & Departures


Vessel's Name
Arrival (UTC)
Arrival (LT)
Departure (UTC)
Departure (LT)
Vessel Type: Cargo Vessels  MARTIN 2014-08-23 04:52:00 2014-08-23 05:52:00
Vessel Type: Cargo Vessels  MARTIN 2014-08-22 18:05:00 2014-08-22 19:05:00 2014-08-23 04:46:00 2014-08-23 05:46:00
Vessel Type: Cargo Vessels  MANFRED 2014-08-22 09:34:00 2014-08-22 10:34:00 2014-08-22 15:21:00 2014-08-22 16:21:00
Vessel Type: Tugs, Pilots etc  SEA CHALLENGE II 2014-08-22 06:50:00 2014-08-22 07:50:00 2014-08-22 08:43:00 2014-08-22 09:43:00
Vessel Type: Tugs, Pilots etc  SEA CHALLENGE II 2014-08-21 15:01:00 2014-08-21 16:01:00 2014-08-22 06:37:00 2014-08-22 07:37:00
Vessel Type: Tugs, Pilots etc  STEVEN B 2014-08-21 12:25:00 2014-08-21 13:25:00 2014-08-22 05:53:00 2014-08-22 06:53:00
Vessel Type: Cargo Vessels  ENSEMBLE 2014-08-20 21:52:00 2014-08-20 22:52:00 2014-08-21 22:11:00 2014-08-21 23:11:00
Vessel Type: Cargo Vessels  EXPANSA 2014-08-21 10:14:00 2014-08-21 11:14:00 2014-08-21 19:37:00 2014-08-21 20:37:00
Vessel Type: Tugs, Pilots etc  SEA CHALLENGE II 2014-08-21 13:04:00 2014-08-21 14:04:00 2014-08-21 14:40:00 2014-08-21 15:40:00
Vessel Type: Tugs, Pilots etc  STEVEN B 2014-08-21 09:55:00 2014-08-21 10:55:00 2014-08-21 11:46:00 2014-08-21 12:46:00

Expected Arrivals


Vessel's Name
Scheduled Arrival (UTC)
Scheduled Arrival (LT)
Estimated Arrival (UTC)
Estimated Arrival (LT)
No Records Found

Wind Forecast


    
Time (UTC)
Speed
Direction
Temperature
2014-08-23 12:00:00 12 knots 292° 16°C
2014-08-23 15:00:00 13 knots 300° 17°C
2014-08-23 18:00:00 11 knots 311° 17°C
2014-08-23 21:00:00 10 knots 303° 16°C
2014-08-24 00:00:00 11 knots 305° 13°C
2014-08-24 03:00:00 11 knots 306° 12°C
2014-08-24 06:00:00 10 knots 309° 10°C
2014-08-24 09:00:00 9 knots 315° 13°C
2014-08-24 12:00:00 7 knots 295° 16°C
2014-08-24 15:00:00 7 knots 299° 17°C
2014-08-24 18:00:00 5 knots 272° 18°C
2014-08-24 21:00:00 9 knots 243° 17°C
2014-08-25 00:00:00 10 knots 245° 16°C
2014-08-25 03:00:00 9 knots 244° 15°C
2014-08-25 06:00:00 6 knots 238° 15°C
2014-08-25 09:00:00 4 knots 184° 16°C
2014-08-25 12:00:00 11 knots 162° 16°C